sensor_id;sensor_type;location;lat;lon;timestamp;P1;durP1;ratioP1;P2;durP2;ratioP2
9102;SDS011;4587;51.434;6.788;2023-04-05T00:01:29;8.07;;;5.67;;
9102;SDS011;4587;51.434;6.788;2023-04-05T00:03:56;9.23;;;5.60;;
9102;SDS011;4587;51.434;6.788;2023-04-05T00:06:23;8.53;;;5.97;;
9102;SDS011;4587;51.434;6.788;2023-04-05T00:09:00;8.47;;;5.67;;
9102;SDS011;4587;51.434;6.788;2023-04-05T00:11:28;9.77;;;5.57;;
9102;SDS011;4587;51.434;6.788;2023-04-05T00:13:55;9.07;;;6.03;;
9102;SDS011;4587;51.434;6.788;2023-04-05T00:16:23;10.73;;;5.93;;
9102;SDS011;4587;51.434;6.788;2023-04-05T00:18:50;9.40;;;6.07;;
9102;SDS011;4587;51.434;6.788;2023-04-05T00:21:17;7.50;;;5.80;;
9102;SDS011;4587;51.434;6.788;2023-04-05T00:23:48;11.60;;;6.40;;
9102;SDS011;4587;51.434;6.788;2023-04-05T00:26:19;11.40;;;5.80;;
9102;SDS011;4587;51.434;6.788;2023-04-05T00:28:48;8.63;;;5.57;;
9102;SDS011;4587;51.434;6.788;2023-04-05T00:31:15;8.97;;;6.10;;
9102;SDS011;4587;51.434;6.788;2023-04-05T00:33:41;9.77;;;6.00;;
9102;SDS011;4587;51.434;6.788;2023-04-05T00:36:08;9.20;;;5.90;;
9102;SDS011;4587;51.434;6.788;2023-04-05T00:38:34;11.53;;;6.47;;
9102;SDS011;4587;51.434;6.788;2023-04-05T00:41:00;11.03;;;6.30;;
9102;SDS011;4587;51.434;6.788;2023-04-05T00:43:25;8.40;;;6.27;;
9102;SDS011;4587;51.434;6.788;2023-04-05T00:45:51;9.60;;;6.27;;
9102;SDS011;4587;51.434;6.788;2023-04-05T00:48:17;11.20;;;5.13;;
9102;SDS011;4587;51.434;6.788;2023-04-05T00:50:43;9.90;;;6.30;;
9102;SDS011;4587;51.434;6.788;2023-04-05T00:53:10;10.87;;;6.40;;
9102;SDS011;4587;51.434;6.788;2023-04-05T00:55:37;10.17;;;6.00;;
9102;SDS011;4587;51.434;6.788;2023-04-05T00:58:03;11.47;;;6.07;;
9102;SDS011;4587;51.434;6.788;2023-04-05T01:00:28;9.30;;;6.37;;
9102;SDS011;4587;51.434;6.788;2023-04-05T01:02:54;8.87;;;6.00;;
9102;SDS011;4587;51.434;6.788;2023-04-05T01:08:36;11.33;;;6.37;;
9102;SDS011;4587;51.434;6.788;2023-04-05T01:11:11;10.40;;;6.47;;
9102;SDS011;4587;51.434;6.788;2023-04-05T01:13:38;9.57;;;6.63;;
9102;SDS011;4587;51.434;6.788;2023-04-05T01:16:05;11.03;;;6.93;;
9102;SDS011;4587;51.434;6.788;2023-04-05T01:18:30;8.17;;;5.97;;
9102;SDS011;4587;51.434;6.788;2023-04-05T01:32:14;13.60;;;7.00;;
9102;SDS011;4587;51.434;6.788;2023-04-05T01:34:47;9.20;;;6.53;;
9102;SDS011;4587;51.434;6.788;2023-04-05T01:37:29;9.80;;;6.30;;
9102;SDS011;4587;51.434;6.788;2023-04-05T01:39:58;10.23;;;6.60;;
9102;SDS011;4587;51.434;6.788;2023-04-05T01:42:25;12.10;;;6.47;;
9102;SDS011;4587;51.434;6.788;2023-04-05T01:44:53;13.03;;;7.07;;
9102;SDS011;4587;51.434;6.788;2023-04-05T01:47:20;11.00;;;6.87;;
9102;SDS011;4587;51.434;6.788;2023-04-05T01:49:46;14.70;;;7.13;;
9102;SDS011;4587;51.434;6.788;2023-04-05T01:52:11;8.93;;;6.40;;
9102;SDS011;4587;51.434;6.788;2023-04-05T01:54:37;9.97;;;6.13;;
9102;SDS011;4587;51.434;6.788;2023-04-05T01:57:03;10.47;;;7.00;;
9102;SDS011;4587;51.434;6.788;2023-04-05T01:59:29;12.20;;;7.50;;
9102;SDS011;4587;51.434;6.788;2023-04-05T02:01:55;10.03;;;6.97;;
9102;SDS011;4587;51.434;6.788;2023-04-05T02:04:20;10.00;;;7.23;;
9102;SDS011;4587;51.434;6.788;2023-04-05T02:06:46;12.13;;;6.77;;
9102;SDS011;4587;51.434;6.788;2023-04-05T02:09:12;10.67;;;7.13;;
9102;SDS011;4587;51.434;6.788;2023-04-05T02:11:37;11.43;;;7.03;;
9102;SDS011;4587;51.434;6.788;2023-04-05T02:14:03;12.33;;;7.10;;
9102;SDS011;4587;51.434;6.788;2023-04-05T02:16:28;11.03;;;7.43;;
9102;SDS011;4587;51.434;6.788;2023-04-05T02:18:57;9.93;;;6.77;;
9102;SDS011;4587;51.434;6.788;2023-04-05T02:21:24;10.23;;;6.80;;
9102;SDS011;4587;51.434;6.788;2023-04-05T02:23:53;9.60;;;6.73;;
9102;SDS011;4587;51.434;6.788;2023-04-05T02:26:19;12.33;;;7.07;;
9102;SDS011;4587;51.434;6.788;2023-04-05T02:28:45;13.47;;;7.63;;
9102;SDS011;4587;51.434;6.788;2023-04-05T02:31:11;9.20;;;6.63;;
9102;SDS011;4587;51.434;6.788;2023-04-05T02:33:38;11.47;;;6.97;;
9102;SDS011;4587;51.434;6.788;2023-04-05T02:36:04;11.90;;;7.30;;
9102;SDS011;4587;51.434;6.788;2023-04-05T02:38:34;11.27;;;7.60;;
9102;SDS011;4587;51.434;6.788;2023-04-05T02:41:00;11.73;;;7.80;;
9102;SDS011;4587;51.434;6.788;2023-04-05T02:43:26;10.87;;;7.53;;
9102;SDS011;4587;51.434;6.788;2023-04-05T02:45:52;10.50;;;7.07;;
9102;SDS011;4587;51.434;6.788;2023-04-05T02:48:18;11.97;;;7.10;;
9102;SDS011;4587;51.434;6.788;2023-04-05T02:50:48;12.07;;;7.70;;
9102;SDS011;4587;51.434;6.788;2023-04-05T02:53:15;11.63;;;7.37;;
9102;SDS011;4587;51.434;6.788;2023-04-05T02:55:42;12.00;;;7.17;;
9102;SDS011;4587;51.434;6.788;2023-04-05T02:58:15;8.50;;;6.70;;
9102;SDS011;4587;51.434;6.788;2023-04-05T03:00:44;10.80;;;7.77;;
9102;SDS011;4587;51.434;6.788;2023-04-05T03:03:15;10.53;;;8.03;;
9102;SDS011;4587;51.434;6.788;2023-04-05T03:05:41;10.10;;;7.40;;
9102;SDS011;4587;51.434;6.788;2023-04-05T03:08:07;11.63;;;7.77;;
9102;SDS011;4587;51.434;6.788;2023-04-05T03:10:34;13.70;;;7.40;;
9102;SDS011;4587;51.434;6.788;2023-04-05T03:13:00;14.13;;;8.07;;
9102;SDS011;4587;51.434;6.788;2023-04-05T03:15:26;13.43;;;7.73;;
9102;SDS011;4587;51.434;6.788;2023-04-05T03:17:52;12.70;;;7.07;;
9102;SDS011;4587;51.434;6.788;2023-04-05T03:20:18;12.33;;;8.03;;
9102;SDS011;4587;51.434;6.788;2023-04-05T03:22:43;15.80;;;7.67;;
9102;SDS011;4587;51.434;6.788;2023-04-05T03:25:10;10.13;;;7.43;;
9102;SDS011;4587;51.434;6.788;2023-04-05T03:27:36;13.77;;;8.13;;
9102;SDS011;4587;51.434;6.788;2023-04-05T03:30:02;11.80;;;7.90;;
9102;SDS011;4587;51.434;6.788;2023-04-05T03:32:28;10.20;;;7.67;;
9102;SDS011;4587;51.434;6.788;2023-04-05T03:34:54;9.13;;;7.00;;
9102;SDS011;4587;51.434;6.788;2023-04-05T03:37:20;14.13;;;8.33;;
9102;SDS011;4587;51.434;6.788;2023-04-05T03:39:46;14.97;;;7.90;;
9102;SDS011;4587;51.434;6.788;2023-04-05T03:42:12;14.80;;;8.90;;
9102;SDS011;4587;51.434;6.788;2023-04-05T03:44:40;15.37;;;8.03;;
9102;SDS011;4587;51.434;6.788;2023-04-05T03:47:05;12.90;;;7.43;;
9102;SDS011;4587;51.434;6.788;2023-04-05T03:49:31;11.33;;;7.33;;
9102;SDS011;4587;51.434;6.788;2023-04-05T03:51:57;13.57;;;7.97;;
9102;SDS011;4587;51.434;6.788;2023-04-05T03:54:22;12.87;;;7.90;;
9102;SDS011;4587;51.434;6.788;2023-04-05T03:56:48;11.60;;;7.60;;
9102;SDS011;4587;51.434;6.788;2023-04-05T03:59:13;11.17;;;7.93;;
9102;SDS011;4587;51.434;6.788;2023-04-05T04:01:39;12.50;;;8.10;;
9102;SDS011;4587;51.434;6.788;2023-04-05T04:04:08;10.70;;;7.50;;
9102;SDS011;4587;51.434;6.788;2023-04-05T04:06:33;13.57;;;8.90;;
9102;SDS011;4587;51.434;6.788;2023-04-05T04:08:59;10.17;;;7.73;;
9102;SDS011;4587;51.434;6.788;2023-04-05T04:11:25;12.63;;;8.97;;
9102;SDS011;4587;51.434;6.788;2023-04-05T04:13:51;12.70;;;8.33;;
9102;SDS011;4587;51.434;6.788;2023-04-05T04:16:17;13.60;;;8.27;;
9102;SDS011;4587;51.434;6.788;2023-04-05T04:18:42;12.07;;;7.73;;
9102;SDS011;4587;51.434;6.788;2023-04-05T04:21:08;13.57;;;8.07;;
9102;SDS011;4587;51.434;6.788;2023-04-05T04:23:34;11.70;;;8.27;;
9102;SDS011;4587;51.434;6.788;2023-04-05T04:26:02;13.83;;;7.87;;
9102;SDS011;4587;51.434;6.788;2023-04-05T04:28:28;11.27;;;7.50;;
9102;SDS011;4587;51.434;6.788;2023-04-05T04:30:54;10.60;;;8.07;;
9102;SDS011;4587;51.434;6.788;2023-04-05T04:33:19;12.37;;;8.50;;
9102;SDS011;4587;51.434;6.788;2023-04-05T04:35:48;13.33;;;8.47;;
9102;SDS011;4587;51.434;6.788;2023-04-05T04:38:14;13.73;;;8.00;;
9102;SDS011;4587;51.434;6.788;2023-04-05T04:40:44;15.97;;;9.23;;
9102;SDS011;4587;51.434;6.788;2023-04-05T04:43:11;11.27;;;8.23;;
9102;SDS011;4587;51.434;6.788;2023-04-05T04:45:44;14.73;;;8.67;;
9102;SDS011;4587;51.434;6.788;2023-04-05T04:48:12;12.93;;;7.77;;
9102;SDS011;4587;51.434;6.788;2023-04-05T04:50:41;13.87;;;8.57;;
9102;SDS011;4587;51.434;6.788;2023-04-05T04:53:08;14.43;;;8.07;;
9102;SDS011;4587;51.434;6.788;2023-04-05T04:55:34;11.40;;;8.23;;
9102;SDS011;4587;51.434;6.788;2023-04-05T04:58:00;12.50;;;8.80;;
9102;SDS011;4587;51.434;6.788;2023-04-05T05:00:33;13.10;;;9.10;;
9102;SDS011;4587;51.434;6.788;2023-04-05T05:03:00;18.07;;;8.87;;
9102;SDS011;4587;51.434;6.788;2023-04-05T05:05:27;14.27;;;8.80;;
9102;SDS011;4587;51.434;6.788;2023-04-05T05:07:52;16.77;;;8.80;;
9102;SDS011;4587;51.434;6.788;2023-04-05T05:10:18;11.43;;;8.13;;
9102;SDS011;4587;51.434;6.788;2023-04-05T05:12:44;10.33;;;7.67;;
9102;SDS011;4587;51.434;6.788;2023-04-05T05:15:12;14.87;;;8.63;;
9102;SDS011;4587;51.434;6.788;2023-04-05T05:17:38;11.70;;;8.57;;
9102;SDS011;4587;51.434;6.788;2023-04-05T05:20:04;13.93;;;8.50;;
9102;SDS011;4587;51.434;6.788;2023-04-05T05:22:34;10.90;;;8.13;;
9102;SDS011;4587;51.434;6.788;2023-04-05T05:25:07;11.63;;;8.77;;
9102;SDS011;4587;51.434;6.788;2023-04-05T05:27:34;12.07;;;8.70;;
9102;SDS011;4587;51.434;6.788;2023-04-05T05:29:59;12.40;;;8.73;;
9102;SDS011;4587;51.434;6.788;2023-04-05T05:32:25;15.37;;;9.23;;
9102;SDS011;4587;51.434;6.788;2023-04-05T05:34:51;12.93;;;8.77;;
9102;SDS011;4587;51.434;6.788;2023-04-05T05:37:16;14.17;;;9.10;;
9102;SDS011;4587;51.434;6.788;2023-04-05T05:39:42;15.20;;;8.90;;
9102;SDS011;4587;51.434;6.788;2023-04-05T05:42:11;13.97;;;9.43;;
9102;SDS011;4587;51.434;6.788;2023-04-05T05:44:37;16.77;;;9.70;;
9102;SDS011;4587;51.434;6.788;2023-04-05T05:47:02;17.40;;;9.70;;
9102;SDS011;4587;51.434;6.788;2023-04-05T05:49:34;20.37;;;9.83;;
9102;SDS011;4587;51.434;6.788;2023-04-05T05:52:00;17.57;;;10.17;;
9102;SDS011;4587;51.434;6.788;2023-04-05T05:54:27;16.57;;;9.93;;
9102;SDS011;4587;51.434;6.788;2023-04-05T05:56:53;17.73;;;9.63;;
9102;SDS011;4587;51.434;6.788;2023-04-05T05:59:18;14.27;;;10.20;;
9102;SDS011;4587;51.434;6.788;2023-04-05T06:01:44;14.20;;;9.57;;
9102;SDS011;4587;51.434;6.788;2023-04-05T06:04:14;14.33;;;9.33;;
9102;SDS011;4587;51.434;6.788;2023-04-05T06:06:40;12.03;;;9.20;;
9102;SDS011;4587;51.434;6.788;2023-04-05T06:09:07;10.73;;;8.27;;
9102;SDS011;4587;51.434;6.788;2023-04-05T06:11:34;12.97;;;9.10;;
9102;SDS011;4587;51.434;6.788;2023-04-05T06:14:00;13.83;;;9.00;;
9102;SDS011;4587;51.434;6.788;2023-04-05T06:16:26;14.70;;;8.50;;
9102;SDS011;4587;51.434;6.788;2023-04-05T06:18:51;17.87;;;8.53;;
9102;SDS011;4587;51.434;6.788;2023-04-05T06:21:19;12.43;;;8.47;;
9102;SDS011;4587;51.434;6.788;2023-04-05T06:23:45;12.80;;;9.10;;
9102;SDS011;4587;51.434;6.788;2023-04-05T06:26:29;14.90;;;8.83;;
9102;SDS011;4587;51.434;6.788;2023-04-05T06:28:55;13.93;;;9.07;;
9102;SDS011;4587;51.434;6.788;2023-04-05T06:31:31;15.37;;;9.10;;
9102;SDS011;4587;51.434;6.788;2023-04-05T06:33:58;15.33;;;8.80;;
9102;SDS011;4587;51.434;6.788;2023-04-05T06:36:23;12.67;;;8.30;;
9102;SDS011;4587;51.434;6.788;2023-04-05T06:38:50;10.90;;;8.63;;
9102;SDS011;4587;51.434;6.788;2023-04-05T06:41:16;13.23;;;9.10;;
9102;SDS011;4587;51.434;6.788;2023-04-05T06:43:42;12.57;;;8.13;;
9102;SDS011;4587;51.434;6.788;2023-04-05T06:46:08;10.10;;;8.10;;
9102;SDS011;4587;51.434;6.788;2023-04-05T06:48:36;13.30;;;8.37;;
9102;SDS011;4587;51.434;6.788;2023-04-05T06:51:02;16.97;;;8.80;;
9102;SDS011;4587;51.434;6.788;2023-04-05T06:53:28;10.67;;;8.00;;
9102;SDS011;4587;51.434;6.788;2023-04-05T06:55:54;12.07;;;7.80;;
9102;SDS011;4587;51.434;6.788;2023-04-05T06:58:21;9.70;;;7.27;;
9102;SDS011;4587;51.434;6.788;2023-04-05T07:00:47;9.93;;;7.47;;
9102;SDS011;4587;51.434;6.788;2023-04-05T07:03:13;10.57;;;7.10;;
9102;SDS011;4587;51.434;6.788;2023-04-05T07:05:40;8.47;;;6.90;;
9102;SDS011;4587;51.434;6.788;2023-04-05T07:08:13;9.40;;;6.60;;
9102;SDS011;4587;51.434;6.788;2023-04-05T07:10:39;7.97;;;6.60;;
9102;SDS011;4587;51.434;6.788;2023-04-05T07:13:05;9.17;;;6.30;;
9102;SDS011;4587;51.434;6.788;2023-04-05T07:15:31;9.20;;;6.40;;
9102;SDS011;4587;51.434;6.788;2023-04-05T07:17:57;7.30;;;5.63;;
9102;SDS011;4587;51.434;6.788;2023-04-05T07:20:22;6.83;;;4.63;;
9102;SDS011;4587;51.434;6.788;2023-04-05T07:22:48;5.90;;;4.90;;
9102;SDS011;4587;51.434;6.788;2023-04-05T07:25:14;7.40;;;5.87;;
9102;SDS011;4587;51.434;6.788;2023-04-05T07:27:39;5.90;;;5.20;;
9102;SDS011;4587;51.434;6.788;2023-04-05T07:30:05;6.33;;;5.00;;
9102;SDS011;4587;51.434;6.788;2023-04-05T07:32:33;5.37;;;4.43;;
9102;SDS011;4587;51.434;6.788;2023-04-05T07:34:58;6.97;;;5.20;;
9102;SDS011;4587;51.434;6.788;2023-04-05T07:37:24;8.53;;;5.00;;
9102;SDS011;4587;51.434;6.788;2023-04-05T07:39:51;6.83;;;4.70;;
9102;SDS011;4587;51.434;6.788;2023-04-05T07:42:17;7.73;;;4.90;;
9102;SDS011;4587;51.434;6.788;2023-04-05T07:44:45;7.57;;;5.17;;
9102;SDS011;4587;51.434;6.788;2023-04-05T07:47:11;9.23;;;5.63;;
9102;SDS011;4587;51.434;6.788;2023-04-05T07:49:37;6.43;;;4.73;;
9102;SDS011;4587;51.434;6.788;2023-04-05T07:52:02;6.50;;;5.90;;
9102;SDS011;4587;51.434;6.788;2023-04-05T07:54:30;6.13;;;5.07;;
9102;SDS011;4587;51.434;6.788;2023-04-05T07:56:57;5.73;;;4.27;;
9102;SDS011;4587;51.434;6.788;2023-04-05T07:59:23;5.87;;;5.20;;
9102;SDS011;4587;51.434;6.788;2023-04-05T08:01:49;6.30;;;5.53;;
9102;SDS011;4587;51.434;6.788;2023-04-05T08:04:15;6.63;;;5.90;;
9102;SDS011;4587;51.434;6.788;2023-04-05T08:06:40;7.40;;;5.97;;
9102;SDS011;4587;51.434;6.788;2023-04-05T08:09:06;6.30;;;5.47;;
9102;SDS011;4587;51.434;6.788;2023-04-05T08:11:33;8.87;;;5.30;;
9102;SDS011;4587;51.434;6.788;2023-04-05T08:13:59;5.60;;;5.10;;
9102;SDS011;4587;51.434;6.788;2023-04-05T08:16:25;8.47;;;5.33;;
9102;SDS011;4587;51.434;6.788;2023-04-05T08:18:51;8.07;;;4.73;;
9102;SDS011;4587;51.434;6.788;2023-04-05T08:21:16;6.63;;;5.30;;
9102;SDS011;4587;51.434;6.788;2023-04-05T08:23:45;6.67;;;5.20;;
9102;SDS011;4587;51.434;6.788;2023-04-05T08:26:11;9.47;;;5.40;;
9102;SDS011;4587;51.434;6.788;2023-04-05T08:28:36;5.53;;;4.70;;
9102;SDS011;4587;51.434;6.788;2023-04-05T08:31:02;5.87;;;5.23;;
9102;SDS011;4587;51.434;6.788;2023-04-05T08:33:28;8.87;;;4.90;;
9102;SDS011;4587;51.434;6.788;2023-04-05T08:35:55;6.57;;;4.60;;
9102;SDS011;4587;51.434;6.788;2023-04-05T08:38:21;8.37;;;4.87;;
9102;SDS011;4587;51.434;6.788;2023-04-05T08:40:47;7.90;;;5.20;;
9102;SDS011;4587;51.434;6.788;2023-04-05T08:45:58;7.20;;;5.50;;
9102;SDS011;4587;51.434;6.788;2023-04-05T08:48:25;7.37;;;5.47;;
9102;SDS011;4587;51.434;6.788;2023-04-05T08:50:53;8.03;;;5.67;;
9102;SDS011;4587;51.434;6.788;2023-04-05T08:53:19;7.53;;;5.13;;
9102;SDS011;4587;51.434;6.788;2023-04-05T08:55:49;9.17;;;5.77;;
9102;SDS011;4587;51.434;6.788;2023-04-05T08:58:17;7.63;;;5.50;;
9102;SDS011;4587;51.434;6.788;2023-04-05T09:00:46;11.10;;;5.90;;
9102;SDS011;4587;51.434;6.788;2023-04-05T09:03:14;9.13;;;5.70;;
9102;SDS011;4587;51.434;6.788;2023-04-05T09:05:43;7.17;;;5.40;;
9102;SDS011;4587;51.434;6.788;2023-04-05T09:08:11;9.27;;;6.17;;
9102;SDS011;4587;51.434;6.788;2023-04-05T09:10:38;9.57;;;5.73;;
9102;SDS011;4587;51.434;6.788;2023-04-05T09:13:04;8.23;;;5.50;;
9102;SDS011;4587;51.434;6.788;2023-04-05T09:15:30;10.50;;;5.57;;
9102;SDS011;4587;51.434;6.788;2023-04-05T09:17:56;6.73;;;5.23;;
9102;SDS011;4587;51.434;6.788;2023-04-05T09:20:22;6.67;;;5.53;;
9102;SDS011;4587;51.434;6.788;2023-04-05T09:22:48;6.97;;;5.10;;
9102;SDS011;4587;51.434;6.788;2023-04-05T09:28:09;8.77;;;5.43;;
9102;SDS011;4587;51.434;6.788;2023-04-05T09:30:36;8.07;;;5.83;;
9102;SDS011;4587;51.434;6.788;2023-04-05T09:33:02;6.97;;;5.70;;
9102;SDS011;4587;51.434;6.788;2023-04-05T09:35:30;7.33;;;5.40;;
9102;SDS011;4587;51.434;6.788;2023-04-05T09:37:57;6.73;;;4.90;;
9102;SDS011;4587;51.434;6.788;2023-04-05T09:40:24;7.03;;;5.20;;
9102;SDS011;4587;51.434;6.788;2023-04-05T09:43:10;7.83;;;6.00;;
9102;SDS011;4587;51.434;6.788;2023-04-05T09:45:41;10.07;;;5.63;;
9102;SDS011;4587;51.434;6.788;2023-04-05T09:48:07;8.07;;;5.47;;
9102;SDS011;4587;51.434;6.788;2023-04-05T09:50:34;7.57;;;5.77;;
9102;SDS011;4587;51.434;6.788;2023-04-05T09:53:18;8.57;;;5.73;;
9102;SDS011;4587;51.434;6.788;2023-04-05T09:55:44;7.47;;;5.70;;
9102;SDS011;4587;51.434;6.788;2023-04-05T09:58:29;8.27;;;5.73;;
9102;SDS011;4587;51.434;6.788;2023-04-05T10:00:56;9.03;;;5.60;;
9102;SDS011;4587;51.434;6.788;2023-04-05T10:03:24;8.23;;;6.13;;
9102;SDS011;4587;51.434;6.788;2023-04-05T10:05:54;9.73;;;6.03;;
9102;SDS011;4587;51.434;6.788;2023-04-05T10:08:20;12.87;;;5.47;;
9102;SDS011;4587;51.434;6.788;2023-04-05T10:10:47;5.77;;;5.17;;
9102;SDS011;4587;51.434;6.788;2023-04-05T10:13:17;6.43;;;5.47;;
9102;SDS011;4587;51.434;6.788;2023-04-05T10:15:44;8.37;;;6.20;;
9102;SDS011;4587;51.434;6.788;2023-04-05T10:18:17;8.77;;;5.90;;
9102;SDS011;4587;51.434;6.788;2023-04-05T10:20:49;8.80;;;5.97;;
9102;SDS011;4587;51.434;6.788;2023-04-05T10:23:24;11.30;;;5.90;;
9102;SDS011;4587;51.434;6.788;2023-04-05T10:28:42;9.07;;;5.63;;
9102;SDS011;4587;51.434;6.788;2023-04-05T10:31:36;6.07;;;5.47;;
9102;SDS011;4587;51.434;6.788;2023-04-05T10:34:20;5.67;;;5.10;;
9102;SDS011;4587;51.434;6.788;2023-04-05T10:36:59;10.70;;;5.27;;
9102;SDS011;4587;51.434;6.788;2023-04-05T10:39:27;9.63;;;5.53;;
9102;SDS011;4587;51.434;6.788;2023-04-05T10:41:53;6.73;;;5.47;;
9102;SDS011;4587;51.434;6.788;2023-04-05T10:44:31;7.30;;;5.33;;
9102;SDS011;4587;51.434;6.788;2023-04-05T10:47:00;9.50;;;6.57;;
9102;SDS011;4587;51.434;6.788;2023-04-05T10:49:45;9.93;;;5.83;;
9102;SDS011;4587;51.434;6.788;2023-04-05T10:52:14;7.43;;;6.07;;
9102;SDS011;4587;51.434;6.788;2023-04-05T10:54:41;10.80;;;5.77;;
9102;SDS011;4587;51.434;6.788;2023-04-05T10:57:08;6.47;;;5.03;;
9102;SDS011;4587;51.434;6.788;2023-04-05T10:59:34;7.40;;;5.50;;
9102;SDS011;4587;51.434;6.788;2023-04-05T11:02:06;8.03;;;5.37;;
9102;SDS011;4587;51.434;6.788;2023-04-05T11:04:33;6.57;;;5.17;;
9102;SDS011;4587;51.434;6.788;2023-04-05T11:07:32;6.60;;;5.17;;
9102;SDS011;4587;51.434;6.788;2023-04-05T11:10:05;8.10;;;5.03;;
9102;SDS011;4587;51.434;6.788;2023-04-05T11:15:31;7.10;;;5.07;;
9102;SDS011;4587;51.434;6.788;2023-04-05T11:20:46;7.70;;;5.50;;
9102;SDS011;4587;51.434;6.788;2023-04-05T11:23:16;7.47;;;5.57;;
9102;SDS011;4587;51.434;6.788;2023-04-05T11:25:49;7.20;;;5.37;;
9102;SDS011;4587;51.434;6.788;2023-04-05T11:30:50;11.83;;;5.90;;
9102;SDS011;4587;51.434;6.788;2023-04-05T11:36:03;9.47;;;6.50;;
9102;SDS011;4587;51.434;6.788;2023-04-05T11:38:29;10.20;;;6.03;;
9102;SDS011;4587;51.434;6.788;2023-04-05T11:41:16;12.77;;;6.90;;
9102;SDS011;4587;51.434;6.788;2023-04-05T11:43:42;10.23;;;6.07;;
9102;SDS011;4587;51.434;6.788;2023-04-05T11:46:08;8.57;;;6.20;;
9102;SDS011;4587;51.434;6.788;2023-04-05T11:48:34;7.40;;;6.43;;
9102;SDS011;4587;51.434;6.788;2023-04-05T11:51:00;10.23;;;7.23;;
9102;SDS011;4587;51.434;6.788;2023-04-05T11:53:33;13.73;;;7.07;;
9102;SDS011;4587;51.434;6.788;2023-04-05T11:56:05;14.23;;;7.90;;
9102;SDS011;4587;51.434;6.788;2023-04-05T11:58:36;16.83;;;8.20;;
9102;SDS011;4587;51.434;6.788;2023-04-05T12:01:04;13.10;;;8.20;;
9102;SDS011;4587;51.434;6.788;2023-04-05T12:03:31;11.20;;;7.40;;
9102;SDS011;4587;51.434;6.788;2023-04-05T12:05:58;11.37;;;7.53;;
9102;SDS011;4587;51.434;6.788;2023-04-05T12:08:41;10.90;;;7.70;;
9102;SDS011;4587;51.434;6.788;2023-04-05T12:11:14;11.80;;;8.20;;
9102;SDS011;4587;51.434;6.788;2023-04-05T12:13:52;11.90;;;8.50;;
9102;SDS011;4587;51.434;6.788;2023-04-05T12:16:23;10.00;;;8.07;;
9102;SDS011;4587;51.434;6.788;2023-04-05T12:18:52;11.80;;;8.20;;
9102;SDS011;4587;51.434;6.788;2023-04-05T12:21:22;12.53;;;8.50;;
9102;SDS011;4587;51.434;6.788;2023-04-05T12:23:48;9.37;;;8.20;;
9102;SDS011;4587;51.434;6.788;2023-04-05T12:26:14;11.37;;;7.83;;
9102;SDS011;4587;51.434;6.788;2023-04-05T12:28:53;9.77;;;7.97;;
9102;SDS011;4587;51.434;6.788;2023-04-05T12:31:42;13.13;;;7.73;;
9102;SDS011;4587;51.434;6.788;2023-04-05T12:34:10;13.93;;;8.03;;
9102;SDS011;4587;51.434;6.788;2023-04-05T12:36:37;12.43;;;8.20;;
9102;SDS011;4587;51.434;6.788;2023-04-05T12:39:06;10.63;;;7.70;;
9102;SDS011;4587;51.434;6.788;2023-04-05T12:41:33;13.43;;;7.80;;
9102;SDS011;4587;51.434;6.788;2023-04-05T12:44:03;12.43;;;8.03;;
9102;SDS011;4587;51.434;6.788;2023-04-05T12:46:43;10.07;;;7.73;;
9102;SDS011;4587;51.434;6.788;2023-04-05T12:49:18;12.07;;;7.73;;
9102;SDS011;4587;51.434;6.788;2023-04-05T12:51:45;11.03;;;7.87;;
9102;SDS011;4587;51.434;6.788;2023-04-05T12:54:19;11.50;;;7.27;;
9102;SDS011;4587;51.434;6.788;2023-04-05T12:56:48;10.63;;;7.70;;
9102;SDS011;4587;51.434;6.788;2023-04-05T12:59:14;11.87;;;7.77;;
9102;SDS011;4587;51.434;6.788;2023-04-05T13:01:40;8.73;;;7.40;;
9102;SDS011;4587;51.434;6.788;2023-04-05T13:04:06;12.93;;;7.90;;
9102;SDS011;4587;51.434;6.788;2023-04-05T13:06:31;11.27;;;7.87;;
9102;SDS011;4587;51.434;6.788;2023-04-05T13:08:57;12.20;;;7.93;;
9102;SDS011;4587;51.434;6.788;2023-04-05T13:11:23;12.70;;;7.70;;
9102;SDS011;4587;51.434;6.788;2023-04-05T13:13:49;8.33;;;6.80;;
9102;SDS011;4587;51.434;6.788;2023-04-05T13:16:14;13.00;;;7.73;;
9102;SDS011;4587;51.434;6.788;2023-04-05T13:18:40;9.60;;;7.23;;
9102;SDS011;4587;51.434;6.788;2023-04-05T13:21:06;10.60;;;7.23;;
9102;SDS011;4587;51.434;6.788;2023-04-05T13:23:33;14.47;;;7.53;;
9102;SDS011;4587;51.434;6.788;2023-04-05T13:26:00;9.60;;;6.90;;
9102;SDS011;4587;51.434;6.788;2023-04-05T13:28:25;10.83;;;6.87;;
9102;SDS011;4587;51.434;6.788;2023-04-05T13:30:51;13.80;;;7.37;;
9102;SDS011;4587;51.434;6.788;2023-04-05T13:33:17;11.37;;;7.30;;
9102;SDS011;4587;51.434;6.788;2023-04-05T13:35:43;14.27;;;7.60;;
9102;SDS011;4587;51.434;6.788;2023-04-05T13:38:09;11.00;;;7.60;;
9102;SDS011;4587;51.434;6.788;2023-04-05T13:40:35;12.57;;;7.00;;
9102;SDS011;4587;51.434;6.788;2023-04-05T13:43:00;10.13;;;7.50;;
9102;SDS011;4587;51.434;6.788;2023-04-05T13:45:26;10.73;;;7.10;;
9102;SDS011;4587;51.434;6.788;2023-04-05T13:47:52;9.87;;;7.07;;
9102;SDS011;4587;51.434;6.788;2023-04-05T13:50:18;11.43;;;7.30;;
9102;SDS011;4587;51.434;6.788;2023-04-05T13:52:44;11.23;;;7.20;;
9102;SDS011;4587;51.434;6.788;2023-04-05T13:55:10;8.30;;;6.30;;
9102;SDS011;4587;51.434;6.788;2023-04-05T13:57:35;7.83;;;6.40;;
9102;SDS011;4587;51.434;6.788;2023-04-05T14:00:01;9.50;;;6.60;;
9102;SDS011;4587;51.434;6.788;2023-04-05T14:02:27;11.17;;;6.57;;
9102;SDS011;4587;51.434;6.788;2023-04-05T14:04:53;9.53;;;6.50;;
9102;SDS011;4587;51.434;6.788;2023-04-05T14:07:19;10.13;;;6.37;;
9102;SDS011;4587;51.434;6.788;2023-04-05T14:09:45;9.37;;;6.73;;
9102;SDS011;4587;51.434;6.788;2023-04-05T14:12:11;10.70;;;7.00;;
9102;SDS011;4587;51.434;6.788;2023-04-05T14:14:37;11.80;;;6.40;;
9102;SDS011;4587;51.434;6.788;2023-04-05T14:17:02;9.00;;;6.33;;
9102;SDS011;4587;51.434;6.788;2023-04-05T14:19:28;11.67;;;6.30;;
9102;SDS011;4587;51.434;6.788;2023-04-05T14:21:54;9.10;;;6.43;;
9102;SDS011;4587;51.434;6.788;2023-04-05T14:24:21;10.63;;;6.37;;
9102;SDS011;4587;51.434;6.788;2023-04-05T14:26:46;12.47;;;6.67;;
9102;SDS011;4587;51.434;6.788;2023-04-05T14:29:17;12.30;;;6.13;;
9102;SDS011;4587;51.434;6.788;2023-04-05T14:31:43;11.93;;;5.80;;
9102;SDS011;4587;51.434;6.788;2023-04-05T14:34:09;9.07;;;6.37;;
9102;SDS011;4587;51.434;6.788;2023-04-05T14:36:36;9.93;;;6.03;;
9102;SDS011;4587;51.434;6.788;2023-04-05T14:39:02;13.27;;;6.67;;
9102;SDS011;4587;51.434;6.788;2023-04-05T14:41:27;11.80;;;6.50;;
9102;SDS011;4587;51.434;6.788;2023-04-05T14:43:53;8.07;;;6.37;;
9102;SDS011;4587;51.434;6.788;2023-04-05T14:46:19;8.90;;;5.90;;
9102;SDS011;4587;51.434;6.788;2023-04-05T14:48:45;8.83;;;5.77;;
9102;SDS011;4587;51.434;6.788;2023-04-05T14:51:12;6.40;;;5.77;;
9102;SDS011;4587;51.434;6.788;2023-04-05T14:53:38;9.83;;;5.40;;
9102;SDS011;4587;51.434;6.788;2023-04-05T14:56:04;9.73;;;5.40;;
9102;SDS011;4587;51.434;6.788;2023-04-05T14:58:30;7.30;;;5.37;;
9102;SDS011;4587;51.434;6.788;2023-04-05T15:00:57;8.77;;;6.10;;
9102;SDS011;4587;51.434;6.788;2023-04-05T15:03:23;8.27;;;5.43;;
9102;SDS011;4587;51.434;6.788;2023-04-05T15:05:49;9.23;;;6.10;;
9102;SDS011;4587;51.434;6.788;2023-04-05T15:08:15;9.50;;;6.07;;
9102;SDS011;4587;51.434;6.788;2023-04-05T15:10:41;11.73;;;6.10;;
9102;SDS011;4587;51.434;6.788;2023-04-05T15:13:07;9.07;;;6.20;;
9102;SDS011;4587;51.434;6.788;2023-04-05T15:15:34;8.97;;;6.63;;
9102;SDS011;4587;51.434;6.788;2023-04-05T15:18:00;9.57;;;6.30;;
9102;SDS011;4587;51.434;6.788;2023-04-05T15:20:26;9.33;;;5.83;;
9102;SDS011;4587;51.434;6.788;2023-04-05T15:22:55;12.83;;;6.10;;
9102;SDS011;4587;51.434;6.788;2023-04-05T15:25:21;9.03;;;6.20;;
9102;SDS011;4587;51.434;6.788;2023-04-05T15:27:47;10.83;;;6.50;;
9102;SDS011;4587;51.434;6.788;2023-04-05T15:30:13;8.90;;;6.07;;
9102;SDS011;4587;51.434;6.788;2023-04-05T15:32:39;7.17;;;6.00;;
9102;SDS011;4587;51.434;6.788;2023-04-05T15:35:05;9.10;;;6.67;;
9102;SDS011;4587;51.434;6.788;2023-04-05T15:37:31;9.97;;;6.23;;
9102;SDS011;4587;51.434;6.788;2023-04-05T15:39:58;11.93;;;6.40;;
9102;SDS011;4587;51.434;6.788;2023-04-05T15:42:24;10.53;;;6.00;;
9102;SDS011;4587;51.434;6.788;2023-04-05T15:44:50;9.70;;;5.97;;